Time;durP1;ratioP1;P1;durP2;ratioP2;P2;SDS_P1;SDS_P2;PMS_P1;PMS_P2;Temp;Humidity;BMP_temperature;BMP_pressure;BME280_temperature;BME280_humidity;BME280_pressure;Samples;Min_cycle;Max_cycle;Signal;HPM_P1;HPM_P2
2020/12/09 00:02:10;;;;;;;7.55;5.50;;;;;;;11.43;61.41;98451.06;5010614;28;20033;-82
2020/12/09 00:04:35;;;;;;;8.70;5.93;;;;;;;10.99;63.11;98450.63;5012144;28;20061;-83
2020/12/09 00:07:01;;;;;;;13.65;5.70;;;;;;;10.50;64.86;98441.53;5039063;28;20799;-84
2020/12/09 00:09:28;;;;;;;12.77;6.57;;;;;;;10.79;64.16;98455.56;5003469;28;20033;-83
2020/12/09 00:11:55;;;;;;;11.35;7.32;;;;;;;10.38;65.67;98443.63;5016585;28;20037;-83
2020/12/09 00:14:22;;;;;;;12.52;6.85;;;;;;;10.36;66.17;98451.50;5016848;28;20052;-83
2020/12/09 00:16:48;;;;;;;11.05;6.57;;;;;;;10.39;66.23;98453.19;5027094;28;20192;-84
2020/12/09 00:19:14;;;;;;;10.43;6.53;;;;;;;10.72;65.20;98454.03;5024514;28;20060;-84
2020/12/09 00:21:39;;;;;;;10.85;6.70;;;;;;;10.85;64.59;98448.41;5008472;28;20493;-83
2020/12/09 00:24:05;;;;;;;9.75;6.50;;;;;;;10.83;64.25;98463.28;5008206;28;20285;-84
2020/12/09 00:26:33;;;;;;;15.82;7.57;;;;;;;10.54;65.33;98459.75;5016874;28;20061;-83
2020/12/09 00:28:59;;;;;;;11.82;6.50;;;;;;;10.46;65.55;98466.03;5011560;28;20034;-85
2020/12/09 00:31:30;;;;;;;9.60;5.90;;;;;;;11.01;64.14;98464.50;5010450;28;20054;-84
2020/12/09 00:37:37;;;;;;;8.73;5.50;;;;;;;9.86;67.27;98460.59;5017376;28;20141;-88
2020/12/09 00:40:05;;;;;;;9.02;6.05;;;;;;;9.99;66.89;98464.59;5024761;28;20068;-84
2020/12/09 00:42:33;;;;;;;11.98;5.07;;;;;;;10.49;65.12;98465.09;5011760;28;20033;-88
2020/12/09 00:44:59;;;;;;;9.07;5.22;;;;;;;10.53;65.20;98458.91;5010633;28;20036;-83
2020/12/09 00:47:25;;;;;;;11.35;6.05;;;;;;;10.73;64.26;98467.06;5013887;28;20038;-82
2020/12/09 00:49:58;;;;;;;12.05;5.20;;;;;;;10.27;66.27;98463.94;5015213;28;20125;-81
2020/12/09 00:52:29;;;;;;;11.07;5.85;;;;;;;10.46;65.81;98465.16;5011512;28;20444;-81
2020/12/09 00:55:00;;;;;;;8.43;4.97;;;;;;;10.67;64.87;98455.91;5012113;28;20778;-81
2020/12/09 00:57:26;;;;;;;9.55;5.18;;;;;;;10.63;65.13;98462.13;5009005;28;20034;-81
2020/12/09 00:59:51;;;;;;;8.43;4.63;;;;;;;10.35;65.39;98459.38;5010352;28;20085;-82
2020/12/09 01:02:18;;;;;;;4.70;3.53;;;;;;;10.53;65.15;98458.03;5010340;28;20567;-81
2020/12/09 01:04:49;;;;;;;14.00;3.90;;;;;;;10.90;64.05;98467.41;5004747;28;20118;-82
2020/12/09 01:07:21;;;;;;;10.45;3.30;;;;;;;10.84;63.84;98464.13;4994101;28;20034;-82
2020/12/09 01:09:46;;;;;;;6.93;2.85;;;;;;;10.43;65.21;98468.72;4995264;28;20040;-82
2020/12/09 01:12:13;;;;;;;5.13;2.30;;;;;;;11.01;63.82;98461.03;4998258;28;20120;-83
2020/12/09 01:14:42;;;;;;;12.15;2.92;;;;;;;10.76;63.71;98466.94;5014055;28;20038;-83
2020/12/09 01:17:08;;;;;;;10.73;2.75;;;;;;;10.81;63.69;98464.22;5029125;28;20041;-82
2020/12/09 01:19:33;;;;;;;8.75;2.35;;;;;;;10.79;63.81;98463.41;5022332;28;20031;-82
2020/12/09 01:22:06;;;;;;;8.50;2.40;;;;;;;10.45;64.30;98466.91;4996786;28;20112;-82
2020/12/09 01:24:34;;;;;;;6.53;2.38;;;;;;;10.83;63.46;98470.25;4999537;28;20173;-82
2020/12/09 01:27:00;;;;;;;6.93;2.22;;;;;;;11.03;62.91;98475.75;4990781;28;20064;-83
2020/12/09 01:29:26;;;;;;;9.10;2.10;;;;;;;11.01;62.77;98469.75;5006120;28;20073;-82
2020/12/09 01:32:02;;;;;;;11.30;2.50;;;;;;;10.99;62.94;98466.28;4997021;28;20038;-83
2020/12/09 01:34:36;;;;;;;5.38;1.73;;;;;;;11.03;62.34;98470.53;5009571;28;20137;-82
2020/12/09 01:37:01;;;;;;;7.25;1.90;;;;;;;11.17;61.94;98473.63;5009778;28;20038;-82
2020/12/09 01:39:27;;;;;;;7.80;2.05;;;;;;;11.28;61.64;98468.06;5023659;28;20474;-82
2020/12/09 01:41:53;;;;;;;9.38;1.95;;;;;;;11.31;61.23;98476.69;5008414;28;20788;-82
2020/12/09 01:44:19;;;;;;;6.55;2.20;;;;;;;10.31;64.33;98469.03;5024558;28;20117;-82
2020/12/09 01:46:45;;;;;;;10.63;2.17;;;;;;;10.36;65.12;98472.38;5009813;28;20049;-82
2020/12/09 01:49:11;;;;;;;12.98;2.33;;;;;;;10.59;64.48;98474.41;5010849;28;20426;-82
2020/12/09 01:51:37;;;;;;;6.20;2.15;;;;;;;10.36;64.81;98475.00;5010727;28;20187;-81
2020/12/09 01:54:03;;;;;;;7.90;1.83;;;;;;;10.85;63.60;98484.97;5008449;28;20034;-82
2020/12/09 01:56:29;;;;;;;7.05;2.00;;;;;;;10.74;63.76;98481.81;5029017;28;20033;-81
2020/12/09 01:58:56;;;;;;;8.48;2.10;;;;;;;10.59;64.65;98479.63;5022129;28;20416;-82
2020/12/09 02:01:23;;;;;;;9.20;1.80;;;;;;;10.16;66.09;98485.09;5027481;28;20063;-82
2020/12/09 02:03:49;;;;;;;8.60;1.83;;;;;;;10.35;65.78;98485.50;4993241;28;20033;-82
2020/12/09 02:06:18;;;;;;;5.93;1.90;;;;;;;9.96;66.71;98493.38;4996439;28;20046;-81
2020/12/09 02:08:47;;;;;;;14.50;2.38;;;;;;;10.47;64.99;98486.03;5011086;28;20033;-82
2020/12/09 02:11:13;;;;;;;6.38;2.47;;;;;;;10.18;65.82;98490.25;4997649;28;20033;-82
2020/12/09 02:13:45;;;;;;;7.18;2.13;;;;;;;9.83;67.32;98491.94;4995787;28;20037;-83
2020/12/09 02:16:13;;;;;;;10.57;2.50;;;;;;;9.83;67.22;98491.13;5008083;28;20038;-81
2020/12/09 02:18:40;;;;;;;8.65;2.05;;;;;;;9.89;66.84;98489.19;5009634;28;20113;-81
2020/12/09 02:21:06;;;;;;;9.65;1.90;;;;;;;9.97;67.08;98500.31;5008870;28;20120;-81
2020/12/09 02:23:31;;;;;;;8.73;1.83;;;;;;;9.55;68.46;98506.50;4992634;28;20540;-81
2020/12/09 02:25:57;;;;;;;8.40;2.08;;;;;;;10.04;67.12;98507.09;5002804;28;20768;-83
2020/12/09 02:28:23;;;;;;;7.75;2.38;;;;;;;10.23;66.72;98509.28;4998318;28;20112;-82
2020/12/09 02:30:49;;;;;;;9.05;2.05;;;;;;;10.35;66.04;98509.84;5011235;28;20034;-81
2020/12/09 02:33:14;;;;;;;10.20;1.95;;;;;;;10.45;65.08;98511.31;5010542;28;20045;-79
2020/12/09 02:35:41;;;;;;;9.40;2.10;;;;;;;10.66;64.63;98524.69;5012821;28;20453;-81
2020/12/09 02:38:07;;;;;;;7.78;2.58;;;;;;;11.12;63.23;98526.94;5009599;28;20890;-81
2020/12/09 02:40:33;;;;;;;5.68;2.08;;;;;;;10.55;64.03;98517.13;5006137;28;20120;-82
2020/12/09 02:42:59;;;;;;;7.93;1.80;;;;;;;10.25;64.58;98520.56;4992748;28;20450;-81
2020/12/09 02:45:25;;;;;;;7.47;1.55;;;;;;;10.37;64.56;98523.69;4988716;28;20040;-82
2020/12/09 02:47:52;;;;;;;4.85;1.30;;;;;;;10.46;64.66;98523.47;5005649;28;20041;-81
2020/12/09 02:50:18;;;;;;;5.55;1.25;;;;;;;10.26;65.62;98528.34;5007077;28;20038;-82
2020/12/09 02:52:43;;;;;;;8.00;1.80;;;;;;;10.13;66.05;98526.88;5011279;28;20045;-82
2020/12/09 02:55:09;;;;;;;7.20;1.70;;;;;;;9.84;67.03;98534.53;4985569;28;20054;-81
2020/12/09 02:57:34;;;;;;;7.45;1.77;;;;;;;9.93;66.69;98527.34;5004305;28;20564;-81
2020/12/09 03:00:01;;;;;;;8.93;1.80;;;;;;;10.24;66.29;98524.91;4990233;28;20034;-82
2020/12/09 03:02:27;;;;;;;12.10;2.30;;;;;;;10.14;66.90;98530.34;5026264;28;20121;-81
2020/12/09 03:04:53;;;;;;;8.73;1.67;;;;;;;9.89;67.93;98522.25;5003062;28;20426;-81
2020/12/09 03:07:18;;;;;;;4.90;1.73;;;;;;;9.85;67.73;98526.69;5025410;28;20026;-81
2020/12/09 03:09:44;;;;;;;4.60;1.75;;;;;;;10.15;66.82;98527.72;5006007;28;20034;-82
2020/12/09 03:12:10;;;;;;;12.18;2.13;;;;;;;10.08;66.84;98526.13;5010196;28;20030;-81
2020/12/09 03:14:36;;;;;;;10.02;1.70;;;;;;;9.99;66.54;98529.81;5010250;28;20102;-80
2020/12/09 03:17:27;;;;;;;8.57;2.00;;;;;;;9.88;67.54;98529.22;4991405;28;20097;-82
2020/12/09 03:19:53;;;;;;;5.63;1.63;;;;;;;10.14;66.18;98535.56;4991780;28;20124;-80
2020/12/09 03:22:19;;;;;;;8.95;1.58;;;;;;;9.86;66.79;98528.41;4988910;28;20491;-80
2020/12/09 03:24:44;;;;;;;8.70;1.63;;;;;;;9.89;66.54;98535.28;5010876;28;20120;-81
2020/12/09 03:27:10;;;;;;;12.02;1.98;;;;;;;9.43;67.85;98525.91;5006464;28;20079;-81
2020/12/09 03:29:36;;;;;;;8.77;2.13;;;;;;;9.97;66.63;98536.00;4993346;28;20491;-80
2020/12/09 03:32:01;;;;;;;11.70;2.20;;;;;;;9.63;67.83;98538.50;5010267;28;20188;-80
2020/12/09 03:34:27;;;;;;;7.93;1.65;;;;;;;9.81;66.77;98542.44;5001914;28;20149;-80
2020/12/09 03:36:52;;;;;;;11.82;1.70;;;;;;;9.74;66.73;98538.25;5011090;28;20053;-80
2020/12/09 03:39:18;;;;;;;12.45;2.15;;;;;;;10.13;65.83;98549.50;5020067;28;20022;-80
2020/12/09 03:41:44;;;;;;;8.23;1.80;;;;;;;9.49;67.77;98553.59;5020852;28;20033;-84
2020/12/09 03:44:10;;;;;;;5.43;1.48;;;;;;;10.08;66.18;98550.47;4992060;28;20454;-80
2020/12/09 03:52:39;;;;;;;15.75;2.17;;;;;;;9.95;66.22;98538.63;5135254;27;20772;-78
2020/12/09 03:55:05;;;;;;;5.20;1.35;;;;;;;9.93;66.14;98547.38;5124114;27;20066;-77
2020/12/09 03:57:31;;;;;;;8.18;1.67;;;;;;;10.12;66.03;98547.81;5127800;27;20115;-77
2020/12/09 03:59:57;;;;;;;7.38;2.08;;;;;;;10.00;66.03;98542.00;5132257;27;20042;-78
2020/12/09 04:02:23;;;;;;;6.65;1.80;;;;;;;9.93;66.08;98550.84;5129815;27;20034;-77
2020/12/09 04:04:49;;;;;;;8.90;2.20;;;;;;;10.64;63.51;98550.88;5142731;27;20410;-77
2020/12/09 04:07:15;;;;;;;10.68;1.77;;;;;;;10.60;63.25;98548.38;5119044;27;20054;-77
2020/12/09 04:09:42;;;;;;;17.20;1.70;;;;;;;10.55;63.24;98548.47;5138594;27;20057;-76
2020/12/09 04:12:09;;;;;;;8.55;1.58;;;;;;;10.62;62.68;98555.28;5122718;27;20042;-76
2020/12/09 04:14:36;;;;;;;7.10;1.63;;;;;;;10.76;61.87;98553.16;5103062;27;20062;-76
2020/12/09 04:17:02;;;;;;;13.95;2.03;;;;;;;10.12;63.94;98556.47;5122928;27;20464;-78
2020/12/09 04:19:30;;;;;;;7.20;1.73;;;;;;;10.23;63.68;98556.25;5120101;27;20035;-78
2020/12/09 04:21:57;;;;;;;9.90;2.35;;;;;;;10.38;62.68;98551.53;5134884;27;20416;-77
2020/12/09 04:24:23;;;;;;;7.30;1.83;;;;;;;9.47;65.63;98560.56;5100317;27;20035;-77
2020/12/09 04:26:52;;;;;;;9.88;1.90;;;;;;;9.60;65.18;98557.66;5111464;27;20137;-79
2020/12/09 04:29:27;;;;;;;13.25;1.95;;;;;;;9.57;65.51;98560.34;5106281;27;20288;-78
2020/12/09 04:31:53;;;;;;;11.38;2.65;;;;;;;9.58;65.13;98556.88;5128566;27;20049;-78
2020/12/09 04:34:26;;;;;;;9.10;1.75;;;;;;;9.60;65.29;98557.66;5143582;27;20155;-78
2020/12/09 04:36:53;;;;;;;10.95;2.30;;;;;;;9.31;66.25;98561.78;5120874;27;20464;-79
2020/12/09 04:39:21;;;;;;;9.20;2.30;;;;;;;9.23;66.89;98555.88;5134315;27;20397;-78
2020/12/09 04:41:49;;;;;;;13.57;2.33;;;;;;;9.43;66.04;98562.41;5144001;27;20039;-78
2020/12/09 04:44:15;;;;;;;9.25;2.17;;;;;;;9.47;66.00;98564.03;5147037;27;20488;-75
2020/12/09 04:46:48;;;;;;;12.82;2.38;;;;;;;9.47;65.82;98561.44;5137608;27;20027;-76
2020/12/09 04:49:16;;;;;;;19.90;2.33;;;;;;;9.27;67.11;98558.38;5159257;27;20043;-79
2020/12/09 04:52:01;;;;;;;10.20;2.30;;;;;;;9.47;66.70;98565.78;5136130;27;20602;-78
2020/12/09 04:54:48;;;;;;;10.68;1.83;;;;;;;9.38;67.08;98566.84;5134074;27;20069;-79
2020/12/09 04:57:52;;;;;;;13.63;2.10;;;;;;;9.45;66.50;98575.38;5144045;27;20108;-78
2020/12/09 05:00:18;;;;;;;13.57;3.20;;;;;;;9.51;66.67;98568.28;5139833;27;20042;-77
2020/12/09 05:02:53;;;;;;;9.30;2.13;;;;;;;9.47;66.30;98571.00;5132496;27;20039;-78
2020/12/09 05:05:24;;;;;;;8.55;2.35;;;;;;;9.64;65.27;98576.69;5128007;27;20045;-80
2020/12/09 05:07:53;;;;;;;4.57;2.00;;;;;;;9.68;65.49;98582.72;5106317;27;20458;-76
2020/12/09 05:10:23;;;;;;;10.85;2.25;;;;;;;9.35;66.53;98579.09;5104803;28;20550;-77
2020/12/09 05:12:51;;;;;;;;;;;;;;;9.29;66.78;98587.03;5115871;27;20035;-77
2020/12/09 05:15:21;;;;;;;12.38;3.03;;;;;;;9.77;65.18;98583.41;5123659;27;20009;-77
2020/12/09 05:18:16;;;;;;;12.25;2.97;;;;;;;9.84;65.13;98586.72;5120552;27;20069;-76
2020/12/09 05:20:43;;;;;;;10.98;3.17;;;;;;;9.54;65.89;98594.28;5100806;27;20115;-76
2020/12/09 05:23:10;;;;;;;7.93;2.17;;;;;;;9.72;65.21;98594.81;5119780;27;20040;-76
2020/12/09 05:25:38;;;;;;;13.95;4.68;;;;;;;9.72;64.96;98597.41;5126012;27;20035;-78
2020/12/09 05:28:05;;;;;;;10.25;2.33;;;;;;;9.27;66.93;98599.22;5125240;27;20719;-79
2020/12/09 05:30:46;;;;;;;11.15;2.35;;;;;;;9.34;66.26;98599.06;5121022;27;20035;-77
2020/12/09 05:33:14;;;;;;;10.75;2.05;;;;;;;9.71;65.08;98595.69;5118955;27;20549;-78
2020/12/09 05:35:40;;;;;;;11.68;2.90;;;;;;;9.87;63.67;98594.47;5130107;27;20063;-78
2020/12/09 05:38:18;;;;;;;15.65;2.38;;;;;;;9.73;64.40;98606.97;5106148;27;20035;-78
2020/12/09 05:40:45;;;;;;;17.33;2.65;;;;;;;9.77;64.47;98606.88;5128167;27;20031;-78
2020/12/09 05:43:12;;;;;;;10.20;2.03;;;;;;;9.92;63.73;98613.50;5104623;27;20046;-77
2020/12/09 05:45:38;;;;;;;8.48;2.70;;;;;;;9.90;63.35;98618.75;5127543;27;20039;-79
2020/12/09 05:48:18;;;;;;;13.07;2.83;;;;;;;10.13;63.00;98622.56;5117826;27;20110;-79
2020/12/09 05:51:12;;;;;;;18.10;3.17;;;;;;;9.74;63.64;98617.34;5102784;27;20477;-76
2020/12/09 05:53:38;;;;;;;8.13;2.53;;;;;;;10.07;62.93;98610.56;5106132;27;20051;-77
2020/12/09 05:56:14;;;;;;;10.55;2.53;;;;;;;9.71;63.97;98621.78;5112674;27;20473;-76
2020/12/09 05:58:41;;;;;;;10.18;2.00;;;;;;;9.29;65.66;98621.75;5106009;27;20042;-78
2020/12/09 06:01:08;;;;;;;7.22;1.98;;;;;;;9.39;65.70;98625.06;5126466;27;20031;-78
2020/12/09 06:03:35;;;;;;;9.02;2.17;;;;;;;9.75;64.47;98629.50;5117863;27;20031;-77
2020/12/09 06:06:18;;;;;;;5.00;1.63;;;;;;;9.78;64.20;98623.38;5121539;27;20125;-79
2020/12/09 06:08:46;;;;;;;8.38;2.05;;;;;;;9.70;64.61;98620.06;5106543;27;20042;-78
2020/12/09 06:11:15;;;;;;;12.65;2.20;;;;;;;8.97;66.62;98627.56;5118899;27;20043;-77
2020/12/09 06:13:42;;;;;;;13.05;2.00;;;;;;;9.61;65.12;98621.97;5123732;27;20047;-77
2020/12/09 06:16:08;;;;;;;9.48;1.90;;;;;;;9.76;64.84;98623.41;5126579;27;20031;-78
2020/12/09 06:18:37;;;;;;;8.55;1.63;;;;;;;10.11;63.66;98620.03;5117466;27;20053;-77
2020/12/09 06:21:05;;;;;;;3.33;1.25;;;;;;;10.21;63.18;98615.50;5107152;27;20058;-77
2020/12/09 06:23:31;;;;;;;9.52;2.00;;;;;;;9.89;64.35;98622.25;5116102;27;20040;-78
2020/12/09 06:25:59;;;;;;;10.35;1.52;;;;;;;9.89;64.37;98618.78;5122562;27;20102;-77
2020/12/09 06:28:27;;;;;;;13.05;1.90;;;;;;;9.24;67.01;98626.22;5122022;27;20031;-78
2020/12/09 06:30:55;;;;;;;8.43;2.25;;;;;;;9.57;66.53;98625.53;5124803;27;20034;-76
2020/12/09 06:33:35;;;;;;;6.15;2.45;;;;;;;9.40;66.87;98614.56;5129517;27;20031;-76
2020/12/09 06:36:20;;;;;;;8.93;2.40;;;;;;;9.24;67.62;98621.00;5114730;27;20026;-77
2020/12/09 06:39:07;;;;;;;9.80;2.28;;;;;;;9.22;67.28;98608.88;5124385;27;20080;-76
2020/12/09 06:41:33;;;;;;;8.50;2.13;;;;;;;9.59;66.45;98623.75;5120639;27;20113;-76
2020/12/09 06:44:16;;;;;;;12.57;2.40;;;;;;;9.24;67.53;98630.56;5114867;27;20035;-77
2020/12/09 06:46:51;;;;;;;12.43;2.35;;;;;;;9.18;67.09;98626.31;5118573;27;20027;-77
2020/12/09 06:49:32;;;;;;;11.98;2.30;;;;;;;9.48;66.23;98628.34;5116906;27;20069;-77
2020/12/09 06:52:01;;;;;;;7.95;2.10;;;;;;;9.57;65.78;98630.75;5110986;27;20465;-77
2020/12/09 06:54:35;;;;;;;6.25;1.80;;;;;;;9.25;66.69;98627.06;5120996;27;20034;-77
2020/12/09 06:57:17;;;;;;;7.82;2.17;;;;;;;8.96;67.80;98638.03;5121799;27;20040;-77
2020/12/09 06:59:47;;;;;;;12.50;2.33;;;;;;;9.41;67.07;98641.50;5101013;27;20035;-78
2020/12/09 07:02:43;;;;;;;3.55;1.80;;;;;;;9.98;65.25;98639.44;5115792;27;20019;-78
2020/12/09 07:05:19;;;;;;;7.72;2.08;;;;;;;9.70;65.66;98652.22;5097753;27;20054;-76
2020/12/09 07:07:49;;;;;;;7.90;2.28;;;;;;;10.06;64.31;98654.06;5103324;27;20072;-77
2020/12/09 07:10:17;;;;;;;11.70;2.42;;;;;;;10.38;62.89;98650.75;5097557;27;20039;-77
2020/12/09 07:12:46;;;;;;;8.18;2.20;;;;;;;9.54;65.28;98656.03;5104334;27;20050;-78
2020/12/09 07:15:11;;;;;;;9.32;1.95;;;;;;;9.84;65.17;98657.13;5116134;27;20023;-80
2020/12/09 07:17:37;;;;;;;8.93;1.92;;;;;;;9.89;64.62;98663.13;5099105;27;20790;-81
2020/12/09 07:20:04;;;;;;;7.72;2.00;;;;;;;9.32;66.55;98654.72;5123706;27;20123;-77
2020/12/09 07:22:30;;;;;;;12.60;2.15;;;;;;;9.70;65.09;98657.44;5104899;27;20373;-78
2020/12/09 07:24:55;;;;;;;9.27;2.72;;;;;;;9.52;65.54;98670.84;5123090;27;20031;-78
2020/12/09 07:27:24;;;;;;;12.52;1.50;;;;;;;9.95;64.49;98671.69;5118972;27;20024;-78
2020/12/09 07:29:53;;;;;;;16.17;1.80;;;;;;;10.16;63.90;98674.75;5123288;27;20300;-77
2020/12/09 07:32:21;;;;;;;10.98;2.67;;;;;;;10.29;63.10;98674.44;5103376;27;20518;-77
2020/12/09 07:35:00;;;;;;;10.10;2.75;;;;;;;10.72;62.12;98670.81;5106278;27;20368;-77
2020/12/09 07:37:29;;;;;;;11.63;2.30;;;;;;;10.74;61.84;98682.13;5118138;27;20031;-77
2020/12/09 07:39:57;;;;;;;14.20;2.60;;;;;;;10.82;61.20;98678.41;5128861;27;20091;-77
2020/12/09 07:42:23;;;;;;;12.98;2.70;;;;;;;10.47;62.43;98678.38;5105611;28;20086;-76
2020/12/09 07:44:51;;;;;;;12.48;3.70;;;;;;;10.75;61.60;98678.56;5121173;28;20524;-76
2020/12/09 07:47:25;;;;;;;9.73;2.88;;;;;;;10.91;60.83;98686.03;5102604;28;20065;-78
2020/12/09 07:49:54;;;;;;;9.05;2.50;;;;;;;10.91;60.70;98682.53;5120065;28;20035;-77
2020/12/09 07:52:24;;;;;;;12.60;3.30;;;;;;;10.26;62.62;98695.41;5125517;27;20078;-79
2020/12/09 07:54:58;;;;;;;12.20;3.10;;;;;;;10.06;63.15;98695.81;5106132;28;20038;-78
2020/12/09 07:57:35;;;;;;;7.78;2.03;;;;;;;9.59;65.08;98683.72;5128877;27;20037;-76
2020/12/09 08:00:04;;;;;;;7.13;1.88;;;;;;;9.82;64.27;98680.66;5122345;28;20043;-77
2020/12/09 08:02:30;;;;;;;6.55;1.80;;;;;;;9.45;65.46;98680.50;5121732;27;20299;-77
2020/12/09 08:05:27;;;;;;;7.68;2.30;;;;;;;9.79;64.21;98687.66;5100253;28;20096;-77
2020/12/09 08:07:59;;;;;;;14.35;2.67;;;;;;;9.31;65.88;98682.53;5040640;28;20060;-77
2020/12/09 08:10:26;;;;;;;9.30;2.42;;;;;;;9.64;64.90;98687.09;5027502;28;20036;-77
2020/12/09 08:13:06;;;;;;;8.13;2.08;;;;;;;9.30;66.05;98685.19;5027753;28;20655;-78
2020/12/09 08:15:34;;;;;;;5.50;1.95;;;;;;;8.93;67.57;98680.59;5024065;28;20025;-77
2020/12/09 08:18:01;;;;;;;9.52;2.38;;;;;;;9.25;66.68;98680.06;5043507;28;20074;-76
2020/12/09 08:20:27;;;;;;;7.30;2.00;;;;;;;9.72;64.87;98684.34;5026095;28;20074;-78
2020/12/09 08:22:54;;;;;;;8.45;2.13;;;;;;;9.49;65.72;98683.94;5043975;28;20040;-77
2020/12/09 08:25:20;;;;;;;5.22;1.70;;;;;;;9.69;65.15;98689.59;5040527;28;20473;-78
2020/12/09 08:27:46;;;;;;;7.85;1.90;;;;;;;9.63;65.48;98687.13;5062522;28;20048;-79
2020/12/09 08:30:27;;;;;;;8.27;1.80;;;;;;;9.02;67.55;98696.06;5026570;28;20562;-81
2020/12/09 08:33:07;;;;;;;7.28;1.95;;;;;;;9.14;66.96;98688.06;5045465;28;20041;-78
2020/12/09 08:35:47;;;;;;;5.05;2.00;;;;;;;9.80;65.33;98697.22;5049703;28;20044;-77
2020/12/09 08:38:32;;;;;;;14.52;1.70;;;;;;;9.42;66.21;98696.22;5050289;28;20063;-78
2020/12/09 08:41:04;;;;;;;3.38;1.25;;;;;;;9.94;64.53;98700.41;5067267;28;20048;-77
2020/12/09 08:43:31;;;;;;;;;;;;;;;9.57;65.02;98698.53;5075864;27;20058;-77
2020/12/09 08:45:57;;;;;;;2.97;0.77;;;;;;;9.25;66.32;98693.09;5122351;27;19922;-76
2020/12/09 08:48:24;;;;;;;1.73;1.10;;;;;;;9.53;65.40;98698.63;5121672;27;20039;-76
2020/12/09 08:50:51;;;;;;;6.38;1.40;;;;;;;9.78;64.53;98699.03;5138042;27;20065;-76
2020/12/09 08:53:19;;;;;;;8.23;1.45;;;;;;;9.44;65.55;98693.59;5108111;27;20115;-78
2020/12/09 08:55:46;;;;;;;2.97;0.95;;;;;;;9.81;64.45;98705.03;5117533;27;20036;-76
2020/12/09 08:58:13;;;;;;;9.23;3.38;;;;;;;9.90;64.50;98702.22;5125176;27;20027;-77
2020/12/09 09:00:40;;;;;;;7.40;1.48;;;;;;;9.76;64.73;98698.19;5115846;27;20036;-76
2020/12/09 09:03:14;;;;;;;3.92;1.25;;;;;;;9.96;64.20;98702.09;5105302;27;20111;-77
2020/12/09 09:05:40;;;;;;;3.47;1.35;;;;;;;9.75;65.04;98707.75;5114347;27;20062;-77
2020/12/09 09:08:10;;;;;;;3.30;1.60;;;;;;;10.29;63.89;98703.16;5110035;27;20111;-76
2020/12/09 09:10:37;;;;;;;7.28;1.42;;;;;;;11.52;60.51;98694.88;5106191;27;20039;-77
2020/12/09 09:13:03;;;;;;;4.78;1.50;;;;;;;11.46;59.40;98696.81;5128034;27;20050;-76
2020/12/09 09:15:29;;;;;;;5.38;1.35;;;;;;;11.41;60.07;98689.09;5120142;27;20031;-76
2020/12/09 09:17:58;;;;;;;7.63;1.50;;;;;;;11.40;59.88;98683.91;5121976;27;20035;-77
2020/12/09 09:20:25;;;;;;;4.10;0.98;;;;;;;11.16;60.43;98686.25;5104907;27;20199;-77
2020/12/09 09:22:51;;;;;;;3.15;0.90;;;;;;;11.18;60.80;98683.59;5123214;27;20065;-78
2020/12/09 09:25:21;;;;;;;5.28;1.13;;;;;;;11.25;60.22;98687.78;5124987;27;20023;-78
2020/12/09 09:27:49;;;;;;;6.35;1.10;;;;;;;10.87;61.25;98687.00;5112664;27;20031;-80
2020/12/09 09:30:17;;;;;;;3.67;1.30;;;;;;;10.48;62.81;98695.78;5107599;27;20027;-78
2020/12/09 09:32:43;;;;;;;5.30;1.35;;;;;;;10.88;62.21;98687.84;5122850;27;20062;-77
2020/12/09 09:35:08;;;;;;;7.10;1.63;;;;;;;10.92;61.46;98686.88;5103060;27;20062;-76
2020/12/09 09:37:34;;;;;;;3.30;1.45;;;;;;;10.47;62.87;98687.06;5116481;27;20117;-76
2020/12/09 09:40:01;;;;;;;4.22;1.60;;;;;;;10.66;62.41;98687.50;5103295;27;20042;-76
2020/12/09 09:42:27;;;;;;;6.50;1.27;;;;;;;10.85;61.80;98685.31;5100216;27;20418;-76
2020/12/09 09:44:53;;;;;;;4.93;1.10;;;;;;;11.16;61.67;98683.66;5110706;27;20043;-76
2020/12/09 09:47:19;;;;;;;5.05;1.23;;;;;;;10.66;62.57;98681.41;5119362;27;20039;-76
2020/12/09 09:49:46;;;;;;;4.25;1.13;;;;;;;10.89;62.13;98690.41;5118317;27;20032;-76
2020/12/09 09:52:12;;;;;;;6.32;1.10;;;;;;;10.71;62.94;98696.09;5116741;27;20043;-75
2020/12/09 09:54:38;;;;;;;5.75;1.23;;;;;;;11.11;61.85;98700.34;5110007;27;20493;-77
2020/12/09 09:57:04;;;;;;;2.78;0.93;;;;;;;11.33;61.01;98699.75;5122218;27;20121;-76
2020/12/09 09:59:30;;;;;;;2.45;0.90;;;;;;;11.17;62.25;98703.66;5115863;27;20124;-76
2020/12/09 10:01:57;;;;;;;3.58;1.15;;;;;;;11.09;62.10;98697.75;5124099;27;20595;-76
2020/12/09 10:04:24;;;;;;;4.57;1.13;;;;;;;11.44;60.97;98699.47;5106500;27;20035;-76
2020/12/09 10:06:52;;;;;;;4.85;1.00;;;;;;;11.68;60.02;98701.41;5110091;27;20038;-78
2020/12/09 10:09:19;;;;;;;4.43;1.27;;;;;;;10.88;62.40;98698.31;5118598;27;20057;-76
2020/12/09 10:11:46;;;;;;;8.65;1.40;;;;;;;11.42;61.38;98695.16;5107364;27;20031;-76
2020/12/09 10:14:16;;;;;;;3.60;1.05;;;;;;;11.37;61.54;98688.28;5101836;27;20039;-79
2020/12/09 10:16:45;;;;;;;5.65;1.90;;;;;;;11.53;61.36;98685.28;5106844;27;20369;-78
2020/12/09 10:19:11;;;;;;;10.25;2.13;;;;;;;11.33;62.53;98689.28;5119369;27;20035;-75
2020/12/09 10:21:36;;;;;;;17.50;3.17;;;;;;;10.81;64.00;98679.31;5109899;27;20480;-77
2020/12/09 10:24:04;;;;;;;20.63;4.95;;;;;;;11.22;62.10;98691.31;5121399;27;20525;-76
2020/12/09 10:26:39;;;;;;;16.13;3.50;;;;;;;10.87;62.66;98691.34;5122691;27;20031;-76
2020/12/09 10:29:09;;;;;;;13.13;3.15;;;;;;;11.41;61.84;98689.09;5125609;27;20354;-76
2020/12/09 10:31:47;;;;;;;15.07;2.85;;;;;;;11.10;62.75;98693.38;5122584;27;20074;-76
2020/12/09 10:34:16;;;;;;;15.93;3.72;;;;;;;11.20;62.03;98687.03;5101141;27;20031;-78
2020/12/09 10:36:50;;;;;;;18.35;4.05;;;;;;;11.23;62.28;98689.56;5125538;27;20064;-76
2020/12/09 10:39:21;;;;;;;20.13;3.35;;;;;;;11.30;62.13;98688.50;5120182;27;20031;-78
2020/12/09 10:41:48;;;;;;;16.80;4.00;;;;;;;11.19;62.72;98680.94;5110969;27;20035;-74
2020/12/09 10:44:14;;;;;;;20.75;3.90;;;;;;;10.74;63.45;98676.88;5113706;27;20287;-74
2020/12/09 10:46:40;;;;;;;30.45;4.75;;;;;;;10.82;63.84;98681.03;5123110;27;20559;-74
2020/12/09 10:49:08;;;;;;;33.72;4.43;;;;;;;10.61;64.39;98680.66;5124103;27;20688;-76
2020/12/09 10:51:49;;;;;;;26.67;4.53;;;;;;;10.83;63.72;98677.53;5123822;27;20070;-76
2020/12/09 10:54:17;;;;;;;23.43;4.40;;;;;;;11.01;62.64;98685.78;5100539;27;20121;-76
2020/12/09 10:56:43;;;;;;;22.13;4.32;;;;;;;11.34;61.92;98684.91;5100196;28;20439;-77
2020/12/09 10:59:09;;;;;;;24.33;4.03;;;;;;;11.20;61.75;98676.56;5116774;27;20438;-79
2020/12/09 11:01:35;;;;;;;21.00;4.22;;;;;;;11.15;62.11;98678.44;5113637;27;20114;-76
2020/12/09 11:04:02;;;;;;;29.95;4.38;;;;;;;11.46;61.07;98675.91;5123455;27;20131;-76
2020/12/09 11:06:37;;;;;;;20.58;4.00;;;;;;;11.58;59.81;98670.31;5115717;27;20095;-77
2020/12/09 11:09:06;;;;;;;19.13;3.85;;;;;;;11.09;61.56;98670.75;5120004;27;20043;-77
2020/12/09 11:11:32;;;;;;;21.73;4.82;;;;;;;11.01;62.18;98675.34;5114178;27;20458;-77
2020/12/09 11:13:58;;;;;;;20.08;3.83;;;;;;;11.15;60.78;98668.84;5125899;27;20046;-75
2020/12/09 11:16:23;;;;;;;13.95;3.10;;;;;;;10.97;61.84;98673.69;5117672;27;20035;-78
2020/12/09 11:18:53;;;;;;;18.40;3.05;;;;;;;11.28;61.03;98672.00;5120794;27;20558;-77
2020/12/09 11:21:23;;;;;;;17.58;3.38;;;;;;;11.36;61.03;98660.47;5117944;27;20118;-76
2020/12/09 11:23:51;;;;;;;22.08;4.03;;;;;;;11.32;60.95;98663.16;5121932;27;20116;-78
2020/12/09 11:26:18;;;;;;;14.88;3.55;;;;;;;11.23;61.39;98658.19;5117654;27;20058;-78
2020/12/09 11:28:44;;;;;;;21.65;4.63;;;;;;;11.31;61.36;98654.50;5104931;27;20079;-77
2020/12/09 11:31:11;;;;;;;17.63;3.80;;;;;;;11.79;60.55;98665.38;5117570;27;20064;-78
2020/12/09 11:33:38;;;;;;;25.92;4.20;;;;;;;11.77;59.85;98661.06;5108282;27;20096;-77
2020/12/09 11:36:05;;;;;;;16.38;2.85;;;;;;;12.13;59.07;98657.38;5101135;28;20062;-76
2020/12/09 11:38:33;;;;;;;26.75;3.90;;;;;;;11.79;59.82;98651.44;5123605;27;20036;-78
2020/12/09 11:40:59;;;;;;;20.42;3.38;;;;;;;12.19;58.65;98651.94;5116917;27;20035;-79
2020/12/09 11:43:27;;;;;;;12.95;3.25;;;;;;;11.73;60.28;98657.69;5110680;27;20027;-78
2020/12/09 11:45:53;;;;;;;19.05;3.65;;;;;;;11.28;61.29;98651.06;5101118;27;20035;-77
2020/12/09 11:48:21;;;;;;;13.73;2.78;;;;;;;11.86;59.88;98649.47;5123218;27;20355;-77
2020/12/09 11:50:48;;;;;;;16.52;3.80;;;;;;;12.02;59.01;98649.00;5124949;28;20091;-77
2020/12/09 11:53:14;;;;;;;17.95;2.60;;;;;;;11.72;59.03;98647.22;5118217;27;20376;-78